Aeroporto :
LOGIN :

Iscrizione | Disclaimer

   EN    FR    IT 

 










Sommario :    VFR   VFR Marginale   IFR   IFR Intensivo   IFR Molto Intensivo
Visibilità : 
Base nubi : 
>= 8 km
>= 3000ft
5 / 8 km
1000 / 3000 ft
1500m / 5 km
500 / 1000 ft
800 / 1500m
200 / 500 ft
< 800m
< 200 ft
Simboli :   Temporali  Nebbia  Neve Forte  Precipitazioni Forti  Vento > 20 kt
SIGMETs :   Varie  Temporali  Ghiacco  Turbolenza  Onda orograficha  Ceneri Vulcaniche






- Altitudine del aeroporto : 20 ft
- Codice IATA : LSI


EGPB - Sumburgh

ULTIMO METAR :
  • 220420Z AUTO 15010KT 120V180 1200 +RA BKN008/// BKN030/// 07/05 Q1007

METARs OBSOLETI :
  • 220350Z AUTO 10019KT 9999 SCT018/// BKN032/// 08/04 Q1007
  • 220320Z AUTO 09021KT 9999 BKN017/// 08/05 Q1007
  • 220250Z AUTO 10020KT 9999 BKN018/// OVC034/// 08/05 Q1008
  • 220220Z AUTO 09018KT 9999 BKN018/// OVC035/// 08/05 Q1008

TAF TAF EGPB
Valido dal 22 a 03 ore il 22 a 12 ore UTC


220157Z 2203/2212 10016KT 9999 FEW012 SCT025
PROB30
TEMPO 2203/2206 6000 SHRA BKN012
TEMPO 2206/2212 11018G28KT 4000 RADZ BKN008
PROB40
TEMPO 2206/2212 BKN005



MetMap, La meteo Aeronautica in un colpo d'occhio ! - Copyright ORBIFLY Dicembre 2007 - Disclaimer

ORBIFLY MET'MAP TEAM :

Programmazione e sviluppo : Alexandra Zaïnal
Concezione e sviluppo : Baudouin d'Aumeries
Co-Programmazione e sviluppo : Marc-Olivier Méhu
Supporto tecnico e logistico : Manuel Goepfert
Aiuto per la traduzione : Arnaldo La Scala

Contatto : metmap@orbifly.com




FONTI E CREDITI :

   NOAA